Time;durP1;ratioP1;P1;durP2;ratioP2;P2;SDS_P1;SDS_P2;PMS_P1;PMS_P2;Temp;Humidity;BMP_temperature;BMP_pressure;BME280_temperature;BME280_humidity;BME280_pressure;Samples;Min_cycle;Max_cycle;Signal;HPM_P1;HPM_P2
2022/12/31 00:04:10;;;;;;;115.07;71.18;;;;;;;4.61;81.51;98654.53;10444115;28;20028;-53
2022/12/31 00:09:10;;;;;;;111.47;70.07;;;;;;;4.63;81.83;98656.34;10426382;28;20494;-52
2022/12/31 00:14:08;;;;;;;114.25;75.95;;;;;;;4.70;81.76;98662.59;10439782;28;20115;-52
2022/12/31 00:19:10;;;;;;;149.20;93.97;;;;;;;4.76;81.63;98661.91;10427378;28;20064;-53
2022/12/31 00:24:10;;;;;;;155.48;98.60;;;;;;;4.84;81.57;98658.81;10446772;28;20845;-52
2022/12/31 00:29:09;;;;;;;143.43;90.30;;;;;;;4.82;81.72;98650.16;10416591;28;20071;-52
2022/12/31 00:34:08;;;;;;;128.80;82.90;;;;;;;4.85;81.71;98662.25;10444115;28;20035;-53
2022/12/31 00:39:09;;;;;;;115.35;77.22;;;;;;;4.79;81.80;98662.91;10434687;28;20060;-53
2022/12/31 00:44:10;;;;;;;133.15;83.07;;;;;;;4.81;81.58;98675.84;10437457;28;20468;-53
2022/12/31 00:49:10;;;;;;;125.10;79.05;;;;;;;4.81;81.85;98687.00;10438622;28;20064;-53
2022/12/31 00:54:09;;;;;;;119.28;74.88;;;;;;;4.81;82.29;98683.56;10437734;28;20064;-53
2022/12/31 00:59:08;;;;;;;113.32;71.50;;;;;;;4.85;82.31;98682.81;10444359;28;20094;-53
2022/12/31 01:04:16;;;;;;;111.03;72.88;;;;;;;4.77;82.31;98695.41;10443586;28;20016;-52
2022/12/31 01:09:17;;;;;;;92.75;57.17;;;;;;;4.72;82.63;98697.81;10438854;28;20616;-51
2022/12/31 01:14:18;;;;;;;78.15;52.90;;;;;;;4.81;82.49;98699.84;10421372;28;20068;-53
2022/12/31 01:19:22;;;;;;;81.25;56.25;;;;;;;4.81;82.41;98706.69;10442108;28;20267;-51
2022/12/31 01:24:21;;;;;;;78.18;52.95;;;;;;;4.85;82.66;98700.81;10440494;28;20060;-54
2022/12/31 01:29:20;;;;;;;88.28;57.53;;;;;;;4.90;82.65;98694.19;10445249;28;20067;-53
2022/12/31 01:34:19;;;;;;;84.38;56.17;;;;;;;4.90;82.17;98682.19;10438181;28;20107;-53
2022/12/31 01:39:18;;;;;;;91.78;60.22;;;;;;;5.00;82.68;98698.88;10437870;28;20074;-51
2022/12/31 01:44:26;;;;;;;96.85;62.97;;;;;;;5.02;82.52;98689.50;10438694;28;20016;-51
2022/12/31 01:49:35;;;;;;;99.10;62.47;;;;;;;5.02;82.47;98699.78;10438039;28;20056;-53
2022/12/31 01:54:39;;;;;;;104.20;70.75;;;;;;;4.98;83.13;98700.50;10438492;28;20581;-53
2022/12/31 01:59:39;;;;;;;95.65;64.35;;;;;;;4.98;83.03;98697.94;10435637;28;20496;-53
2022/12/31 02:04:38;;;;;;;110.03;70.75;;;;;;;4.86;83.60;98700.91;10440850;28;20067;-53
2022/12/31 02:09:41;;;;;;;102.53;66.38;;;;;;;4.93;83.21;98699.44;10448060;28;20502;-50
2022/12/31 02:14:49;;;;;;;105.97;62.15;;;;;;;5.03;82.89;98704.09;10450559;28;20068;-54
2022/12/31 02:19:54;;;;;;;98.45;64.47;;;;;;;5.06;83.28;98714.53;10437290;28;20091;-51
2022/12/31 02:25:27;;;;;;;87.57;56.97;;;;;;;5.12;82.83;98713.88;10441765;28;20052;-53
2022/12/31 02:30:31;;;;;;;84.18;53.88;;;;;;;5.11;82.71;98706.94;10440542;28;20060;-52
2022/12/31 02:35:53;;;;;;;77.50;50.15;;;;;;;5.08;83.04;98728.28;10431934;28;20060;-51
2022/12/31 02:40:53;;;;;;;64.80;44.53;;;;;;;5.01;82.92;98734.03;10455433;28;20059;-53
2022/12/31 02:46:19;;;;;;;62.83;42.38;;;;;;;5.01;83.04;98733.16;10457153;28;20068;-53
2022/12/31 02:51:34;;;;;;;66.15;42.05;;;;;;;5.12;82.42;98740.47;10428515;28;20795;-52
2022/12/31 02:57:19;;;;;;;61.05;41.42;;;;;;;5.19;82.35;98735.56;10416026;28;20823;-52
2022/12/31 03:02:21;;;;;;;56.92;39.15;;;;;;;5.24;82.60;98732.31;10416785;28;20083;-54
2022/12/31 03:07:24;;;;;;;65.93;43.25;;;;;;;5.22;82.39;98720.22;10416791;28;20064;-53
2022/12/31 03:17:48;;;;;;;100.35;63.97;;;;;;;4.99;83.03;98722.81;10448185;28;20076;-53
2022/12/31 03:22:47;;;;;;;109.85;70.15;;;;;;;4.86;83.26;98721.47;10438185;28;20833;-53
2022/12/31 03:27:47;;;;;;;106.22;67.28;;;;;;;4.80;83.22;98705.81;10446124;28;20076;-53
2022/12/31 03:32:47;;;;;;;108.95;68.70;;;;;;;4.69;83.69;98719.97;10428990;28;20919;-53
2022/12/31 03:37:47;;;;;;;106.65;70.18;;;;;;;4.63;83.83;98730.88;10440729;28;20118;-51
2022/12/31 03:42:46;;;;;;;101.30;64.53;;;;;;;4.58;83.78;98734.97;10438684;28;20071;-54
2022/12/31 03:47:45;;;;;;;96.00;60.55;;;;;;;4.50;83.80;98739.84;10442915;28;20013;-53
2022/12/31 03:52:45;;;;;;;82.35;52.85;;;;;;;4.43;83.97;98732.72;10428102;28;20064;-53
2022/12/31 03:57:44;;;;;;;81.10;51.40;;;;;;;4.20;84.47;98734.38;10415340;28;20064;-52
2022/12/31 04:02:44;;;;;;;64.35;39.40;;;;;;;4.08;84.80;98749.28;10423026;28;20500;-52
2022/12/31 04:07:43;;;;;;;54.50;34.60;;;;;;;3.99;84.53;98741.22;10455562;28;20072;-54
2022/12/31 04:12:43;;;;;;;54.05;32.28;;;;;;;3.91;84.94;98747.72;10429746;28;20060;-51
2022/12/31 04:17:42;;;;;;;49.42;31.52;;;;;;;3.82;84.71;98745.63;10453626;28;20076;-54
2022/12/31 04:22:42;;;;;;;55.33;34.95;;;;;;;3.58;84.64;98727.53;10434177;28;20079;-53
2022/12/31 04:27:45;;;;;;;56.05;37.63;;;;;;;3.60;84.78;98761.84;10429525;28;20063;-54
2022/12/31 04:32:43;;;;;;;59.60;38.88;;;;;;;3.52;85.22;98766.66;10443805;28;20071;-53
2022/12/31 04:37:42;;;;;;;113.90;68.80;;;;;;;3.46;85.96;98783.47;10449347;28;20423;-53
2022/12/31 04:42:41;;;;;;;82.63;49.70;;;;;;;3.43;85.76;98781.63;10474455;28;20032;-52
2022/12/31 04:47:40;;;;;;;69.75;44.10;;;;;;;3.39;85.86;98787.44;10418974;28;20103;-52
2022/12/31 04:52:39;;;;;;;65.78;42.20;;;;;;;3.31;85.82;98789.69;10445825;28;20106;-52
2022/12/31 04:57:40;;;;;;;65.57;41.83;;;;;;;3.22;86.00;98795.28;10416032;28;20023;-54
2022/12/31 05:02:39;;;;;;;70.88;44.58;;;;;;;3.12;86.56;98799.91;10468638;28;20082;-53
2022/12/31 05:07:38;;;;;;;80.00;49.28;;;;;;;3.01;87.05;98804.56;10435130;28;20414;-52
2022/12/31 05:12:37;;;;;;;103.00;60.70;;;;;;;2.92;87.41;98810.13;10453972;28;20032;-54
2022/12/31 05:17:36;;;;;;;110.88;65.30;;;;;;;2.90;87.14;98822.00;10452905;28;20039;-54
2022/12/31 05:22:35;;;;;;;107.55;64.57;;;;;;;2.90;87.66;98821.13;10454166;28;20086;-51
2022/12/31 05:27:36;;;;;;;111.60;67.25;;;;;;;2.84;87.76;98829.44;10439099;28;20064;-51
2022/12/31 05:32:35;;;;;;;116.10;71.40;;;;;;;2.77;88.22;98824.81;10425558;28;20067;-53
2022/12/31 05:37:34;;;;;;;120.45;71.18;;;;;;;2.69;88.44;98829.56;10459981;28;20064;-54
2022/12/31 05:42:34;;;;;;;122.70;75.22;;;;;;;2.58;88.91;98830.72;10464840;28;20086;-53
2022/12/31 05:47:32;;;;;;;;;;;;;;;2.57;89.34;98837.56;10423156;28;20063;-53
2022/12/31 05:52:31;;;;;;;115.70;68.00;;;;;;;2.61;89.18;98847.97;10421672;28;19918;-53
2022/12/31 05:57:30;;;;;;;117.13;71.28;;;;;;;2.54;89.44;98847.66;10456358;28;20082;-53
2022/12/31 06:02:29;;;;;;;129.80;73.68;;;;;;;2.52;89.29;98843.28;10418515;28;20028;-51
2022/12/31 06:07:28;;;;;;;112.53;70.65;;;;;;;2.50;89.37;98840.63;10418618;28;20104;-53
2022/12/31 06:12:27;;;;;;;116.07;68.47;;;;;;;2.57;89.27;98850.38;10449361;28;20103;-53
2022/12/31 06:17:26;;;;;;;129.82;77.65;;;;;;;2.52;89.72;98854.41;10457866;28;20036;-52
2022/12/31 06:22:25;;;;;;;140.10;80.85;;;;;;;2.54;90.33;98854.47;10457290;28;20478;-53
2022/12/31 06:27:24;;;;;;;162.13;89.63;;;;;;;2.59;90.51;98861.56;10424943;28;20052;-51
2022/12/31 06:32:23;;;;;;;152.63;88.85;;;;;;;2.69;90.30;98862.00;10456622;28;20119;-53
2022/12/31 06:37:22;;;;;;;174.77;105.43;;;;;;;2.71;90.24;98876.66;10456813;28;20032;-53
2022/12/31 06:42:21;;;;;;;156.50;100.93;;;;;;;2.63;89.80;98884.78;10455607;28;20115;-52
2022/12/31 06:47:21;;;;;;;106.63;66.80;;;;;;;2.55;90.65;98894.66;10457511;28;20020;-52
2022/12/31 06:52:20;;;;;;;85.55;53.35;;;;;;;2.51;90.19;98896.22;10426137;28;20473;-53
2022/12/31 06:57:19;;;;;;;;;;;;;;;2.54;89.55;98909.16;10420832;28;20534;-54
2022/12/31 07:02:39;;;;;;;64.10;40.20;;;;;;;2.61;90.22;98914.59;10436554;28;20437;-52
2022/12/31 07:07:50;;;;;;;64.82;40.80;;;;;;;2.68;89.51;98922.66;10455192;28;20651;-53
2022/12/31 07:13:11;;;;;;;60.15;38.65;;;;;;;2.75;89.90;98928.97;10431337;28;20067;-53
2022/12/31 07:18:19;;;;;;;56.92;37.60;;;;;;;2.88;89.81;98925.28;10429339;28;20075;-53
2022/12/31 07:23:19;;;;;;;60.35;37.88;;;;;;;2.96;89.61;98936.81;10426201;28;20063;-52
2022/12/31 07:28:27;;;;;;;;;;;;;;;3.11;89.98;98944.34;10449344;28;20056;-53
2022/12/31 07:33:28;;;;;;;75.65;46.65;;;;;;;3.25;89.73;98942.44;10417038;28;19963;-51
2022/12/31 07:38:36;;;;;;;78.70;48.55;;;;;;;3.42;89.71;98947.56;10450636;28;20074;-54
2022/12/31 07:43:42;;;;;;;107.63;68.80;;;;;;;3.58;89.60;98950.81;10453296;28;20051;-54
2022/12/31 07:48:42;;;;;;;131.02;86.05;;;;;;;3.79;89.51;98950.91;10446199;28;20075;-53
2022/12/31 07:53:41;;;;;;;128.98;87.95;;;;;;;3.97;89.15;98949.16;10413357;28;20059;-54
2022/12/31 07:58:39;;;;;;;152.73;99.47;;;;;;;4.22;88.76;98950.22;10423784;28;20040;-51
2022/12/31 08:03:48;;;;;;;135.82;88.28;;;;;;;4.44;88.43;98952.91;10414487;28;20042;-54
2022/12/31 08:09:23;;;;;;;139.90;92.30;;;;;;;4.67;88.09;98946.16;10425848;28;20075;-54
2022/12/31 08:14:23;;;;;;;111.65;74.10;;;;;;;4.90;87.60;98953.94;10425010;28;20735;-53
2022/12/31 08:19:29;;;;;;;122.65;84.43;;;;;;;5.18;87.13;98952.50;10424275;28;20601;-53
2022/12/31 08:24:37;;;;;;;135.65;94.60;;;;;;;5.41;86.57;98948.25;10453093;28;20076;-50
2022/12/31 08:29:39;;;;;;;114.93;75.53;;;;;;;5.70;85.62;98957.09;10453026;28;20074;-54
2022/12/31 08:34:56;;;;;;;106.28;68.07;;;;;;;5.87;85.09;98940.56;10448982;28;20943;-50
2022/12/31 08:40:02;;;;;;;98.90;64.93;;;;;;;6.22;84.34;98959.00;10437149;28;20067;-51
2022/12/31 08:45:26;;;;;;;83.68;56.40;;;;;;;6.53;83.24;98944.59;10426628;28;20166;-54
2022/12/31 08:50:26;;;;;;;69.38;47.65;;;;;;;6.79;82.51;98955.78;10436865;28;20060;-52
2022/12/31 08:55:25;;;;;;;68.45;47.33;;;;;;;7.07;82.47;98942.06;10419709;28;20485;-52
2022/12/31 09:00:26;;;;;;;62.25;46.28;;;;;;;7.35;81.70;98946.41;10448709;28;20074;-54
2022/12/31 09:05:57;;;;;;;65.60;42.58;;;;;;;7.61;79.91;98939.47;10462925;28;20062;-53
2022/12/31 09:11:12;;;;;;;60.05;42.08;;;;;;;7.88;79.67;98938.53;10475062;28;20068;-54
2022/12/31 09:16:11;;;;;;;52.17;38.03;;;;;;;8.12;78.52;98928.00;10460417;28;20127;-51
2022/12/31 09:21:12;;;;;;;57.13;40.22;;;;;;;8.36;77.42;98919.16;10450442;28;20040;-52
2022/12/31 09:26:23;;;;;;;51.83;35.20;;;;;;;8.61;76.30;98913.78;10456593;28;20064;-51
2022/12/31 09:31:51;;;;;;;50.20;35.58;;;;;;;8.85;74.98;98918.69;10442573;28;20721;-52
2022/12/31 09:36:55;;;;;;;55.72;36.78;;;;;;;9.12;73.89;98915.03;10431909;28;20546;-51
2022/12/31 09:42:19;;;;;;;55.38;37.33;;;;;;;9.37;72.88;98890.56;10446762;28;20076;-53
2022/12/31 09:47:33;;;;;;;45.95;35.42;;;;;;;9.61;71.77;98881.59;10442598;28;20071;-53
2022/12/31 09:53:09;;;;;;;49.10;36.30;;;;;;;9.86;70.55;98877.75;10458188;28;20067;-52
2022/12/31 09:58:30;;;;;;;79.30;51.00;;;;;;;10.13;68.77;98867.06;10456842;28;20091;-54
2022/12/31 10:03:50;;;;;;;97.78;69.75;;;;;;;10.30;66.60;98857.00;10449068;28;20060;-53
2022/12/31 10:09:01;;;;;;;84.50;63.03;;;;;;;10.52;66.35;98853.03;10442881;28;22141;-54
2022/12/31 10:14:37;;;;;;;71.40;54.47;;;;;;;10.70;65.75;98845.53;10443249;28;20501;-53
2022/12/31 10:19:57;;;;;;;62.17;45.70;;;;;;;10.92;65.17;98833.81;10449456;28;20071;-54
2022/12/31 10:25:35;;;;;;;27.08;18.92;;;;;;;11.13;64.15;98824.59;10445001;28;20060;-53
2022/12/31 10:30:39;;;;;;;25.08;17.08;;;;;;;11.23;62.91;98818.66;10440509;28;20068;-51
2022/12/31 10:35:56;;;;;;;25.23;18.23;;;;;;;11.40;63.05;98809.34;10425632;28;20076;-54
2022/12/31 10:41:32;;;;;;;22.05;16.50;;;;;;;11.67;61.69;98807.97;10449721;28;20060;-53
2022/12/31 10:46:49;;;;;;;19.80;14.82;;;;;;;11.95;60.52;98803.06;10446828;28;20055;-52
2022/12/31 10:52:00;;;;;;;23.50;17.77;;;;;;;12.15;59.52;98792.84;10449343;28;20056;-51
2022/12/31 10:57:11;;;;;;;17.83;12.32;;;;;;;12.30;58.50;98783.47;10442433;28;20060;-53
2022/12/31 11:02:28;;;;;;;15.50;12.30;;;;;;;12.31;58.24;98797.34;10440071;28;20055;-53
2022/12/31 11:07:50;;;;;;;15.75;13.02;;;;;;;12.46;57.27;98786.19;10448905;28;20056;-53
2022/12/31 11:13:07;;;;;;;14.38;10.60;;;;;;;12.69;56.75;98783.75;10462160;28;20067;-52
2022/12/31 11:18:09;;;;;;;21.40;16.25;;;;;;;12.95;56.32;98778.72;10466872;28;20139;-54
2022/12/31 11:23:34;;;;;;;15.25;12.65;;;;;;;13.20;56.74;98784.06;10430925;28;20068;-54
2022/12/31 11:28:49;;;;;;;9.60;6.38;;;;;;;13.45;54.83;98767.69;10427020;28;20107;-53
2022/12/31 11:34:00;;;;;;;11.00;7.18;;;;;;;13.62;53.11;98772.13;10435262;28;20059;-53
2022/12/31 11:39:22;;;;;;;12.30;8.50;;;;;;;13.70;53.02;98773.00;10450477;28;20111;-52
2022/12/31 11:44:33;;;;;;;11.13;7.47;;;;;;;13.91;51.98;98765.25;10430737;28;20561;-53
2022/12/31 11:50:10;;;;;;;10.55;7.38;;;;;;;14.12;51.54;98763.50;10445107;28;20502;-52
2022/12/31 11:55:18;;;;;;;17.23;10.00;;;;;;;14.26;51.38;98764.38;10398200;28;20136;-53
2022/12/31 12:00:20;;;;;;;9.82;6.43;;;;;;;14.39;50.19;98766.13;10373386;28;20078;-52
2022/12/31 12:05:22;;;;;;;6.35;5.03;;;;;;;14.46;49.34;98766.13;10395035;28;20080;-53
2022/12/31 12:10:46;;;;;;;11.38;7.55;;;;;;;14.51;49.43;98772.22;10411337;28;20075;-52
2022/12/31 12:15:49;;;;;;;9.73;6.43;;;;;;;14.61;48.99;98777.44;10405783;28;20507;-52
2022/12/31 12:20:48;;;;;;;8.27;5.43;;;;;;;14.66;48.20;98773.94;10395275;28;20080;-53
2022/12/31 12:25:47;;;;;;;8.48;5.40;;;;;;;14.73;47.84;98767.88;10403397;28;20029;-52
2022/12/31 12:30:54;;;;;;;8.27;4.82;;;;;;;14.78;47.33;98768.72;10387062;28;20032;-53
2022/12/31 12:36:04;;;;;;;6.85;5.30;;;;;;;14.89;47.04;98779.19;10383259;28;20087;-51
2022/12/31 12:41:06;;;;;;;8.98;6.43;;;;;;;14.93;46.52;98778.31;10395284;28;20061;-54
2022/12/31 12:46:16;;;;;;;12.10;8.00;;;;;;;14.97;46.62;98780.03;10400670;28;20495;-52
2022/12/31 12:51:36;;;;;;;8.48;5.85;;;;;;;14.97;46.65;98782.66;10390908;28;20064;-52
2022/12/31 12:56:45;;;;;;;13.43;12.15;;;;;;;15.00;45.99;98795.72;10393613;28;20068;-53
2022/12/31 13:02:21;;;;;;;9.07;6.72;;;;;;;15.12;46.37;98793.06;10402270;28;20064;-53
2022/12/31 13:07:45;;;;;;;21.00;18.92;;;;;;;15.17;45.76;98799.13;10405412;28;20065;-52
2022/12/31 13:12:55;;;;;;;17.40;13.95;;;;;;;15.20;45.93;98803.50;10388135;28;20479;-51
2022/12/31 13:18:13;;;;;;;9.80;6.65;;;;;;;15.24;45.93;98806.09;10408637;28;20120;-53
2022/12/31 13:23:25;;;;;;;19.13;12.73;;;;;;;15.22;45.78;98807.88;10388472;28;20112;-51
2022/12/31 13:28:26;;;;;;;7.38;5.35;;;;;;;15.20;45.21;98801.78;10388728;28;20060;-52
2022/12/31 13:33:32;;;;;;;14.30;9.02;;;;;;;15.19;45.75;98813.09;10403978;28;20075;-53
2022/12/31 13:38:37;;;;;;;13.80;9.05;;;;;;;15.15;46.01;98816.56;10408051;28;20491;-55
2022/12/31 13:43:42;;;;;;;11.95;9.20;;;;;;;15.15;45.80;98824.41;10390020;28;20064;-53
2022/12/31 13:48:53;;;;;;;14.93;9.65;;;;;;;15.08;46.13;98834.91;10414189;28;20151;-52
2022/12/31 13:54:01;;;;;;;12.10;10.27;;;;;;;14.98;46.21;98828.81;10397944;28;20072;-54
2022/12/31 13:59:21;;;;;;;20.73;14.05;;;;;;;14.87;46.06;98828.81;10413906;28;20067;-52
2022/12/31 14:04:52;;;;;;;37.22;24.60;;;;;;;14.74;46.78;98824.50;10401695;28;20075;-53
2022/12/31 14:09:51;;;;;;;56.00;31.90;;;;;;;14.47;47.43;98830.53;10389769;28;20083;-53
2022/12/31 14:15:17;;;;;;;68.15;36.97;;;;;;;14.22;48.05;98834.84;10413073;28;20314;-53
2022/12/31 14:20:58;;;;;;;79.82;48.15;;;;;;;13.86;48.51;98829.56;10408249;28;20149;-53
2022/12/31 14:26:04;;;;;;;83.53;45.70;;;;;;;13.48;49.23;98840.69;10392211;28;20064;-51
2022/12/31 14:31:19;;;;;;;57.28;35.85;;;;;;;13.13;49.99;98837.91;10394564;28;20116;-53
2022/12/31 14:36:50;;;;;;;51.90;31.30;;;;;;;12.81;50.75;98840.28;10397938;28;20060;-51
2022/12/31 14:42:06;;;;;;;46.10;25.92;;;;;;;12.54;51.43;98839.22;10372800;28;20079;-53
2022/12/31 14:47:31;;;;;;;30.13;19.80;;;;;;;12.29;52.23;98841.56;10395629;28;20064;-54
2022/12/31 14:52:47;;;;;;;38.80;26.08;;;;;;;12.01;52.71;98844.72;10385225;28;20079;-51
2022/12/31 14:57:47;;;;;;;39.80;27.85;;;;;;;11.68;53.32;98843.50;10396294;28;20183;-53
2022/12/31 15:03:17;;;;;;;38.22;25.70;;;;;;;11.50;53.98;98867.53;10398719;28;20768;-52
2022/12/31 15:08:39;;;;;;;58.80;32.90;;;;;;;11.29;55.06;98873.31;10409168;28;20558;-53
2022/12/31 15:13:38;;;;;;;47.22;27.60;;;;;;;11.02;55.71;98866.00;10407667;28;20321;-55
2022/12/31 15:19:06;;;;;;;43.45;27.88;;;;;;;10.76;56.32;98857.78;10408135;28;20048;-53
2022/12/31 15:24:22;;;;;;;43.05;27.73;;;;;;;10.49;56.97;98868.56;10398222;28;20056;-53
2022/12/31 15:29:32;;;;;;;42.47;28.05;;;;;;;10.23;58.38;98857.72;10392754;28;20052;-54
2022/12/31 15:34:33;;;;;;;46.45;29.73;;;;;;;9.98;58.84;98878.03;10401646;28;20100;-53
2022/12/31 15:39:39;;;;;;;56.97;37.10;;;;;;;9.83;59.02;98883.75;10392807;28;20060;-52
2022/12/31 15:44:50;;;;;;;73.00;43.22;;;;;;;9.70;59.50;98887.84;10398066;28;20511;-53
2022/12/31 15:49:52;;;;;;;67.38;43.90;;;;;;;9.58;60.50;98897.94;10384161;28;20073;-53
2022/12/31 15:54:54;;;;;;;78.50;50.75;;;;;;;9.38;61.48;98914.78;10404554;28;20052;-54
2022/12/31 15:59:58;;;;;;;80.07;51.42;;;;;;;9.31;61.74;98926.72;10404029;28;20078;-53
2022/12/31 16:04:57;;;;;;;99.50;65.88;;;;;;;9.12;62.87;98922.78;10400928;28;20499;-54
2022/12/31 16:09:59;;;;;;;128.07;84.05;;;;;;;9.01;63.39;98926.84;10391592;28;20495;-53
2022/12/31 16:14:58;;;;;;;104.88;68.45;;;;;;;8.96;63.82;98928.44;10396239;28;20515;-53
2022/12/31 16:19:59;;;;;;;194.60;135.20;;;;;;;8.88;64.33;98942.06;10408166;28;20032;-54
2022/12/31 16:24:59;;;;;;;109.15;78.07;;;;;;;8.76;65.30;98949.50;10394521;28;20060;-53
2022/12/31 16:30:06;;;;;;;83.07;54.47;;;;;;;8.60;65.82;98949.94;10404665;28;20060;-53
2022/12/31 16:35:23;;;;;;;182.23;110.22;;;;;;;8.37;66.17;98952.81;10410027;28;20075;-53
2022/12/31 16:40:23;;;;;;;121.18;77.40;;;;;;;8.23;67.12;98961.91;10407771;28;20085;-52
2022/12/31 16:45:43;;;;;;;132.38;93.43;;;;;;;7.99;67.77;98959.50;10402658;28;20144;-53
2022/12/31 16:50:48;;;;;;;100.15;63.22;;;;;;;7.88;68.00;98961.78;10388309;28;20064;-55
2022/12/31 16:55:59;;;;;;;126.95;83.90;;;;;;;7.74;69.01;98976.03;10394187;28;20109;-55
2022/12/31 17:01:16;;;;;;;147.15;92.53;;;;;;;7.60;70.11;98973.88;10389339;28;20060;-52
2022/12/31 17:06:18;;;;;;;132.05;89.22;;;;;;;7.50;70.30;98970.97;10411767;28;20477;-52
2022/12/31 17:11:42;;;;;;;138.35;90.15;;;;;;;7.37;70.64;98987.78;10391900;28;20068;-54
2022/12/31 17:17:05;;;;;;;152.55;100.55;;;;;;;7.23;71.64;99002.81;10390740;28;20076;-54
2022/12/31 17:22:08;;;;;;;139.35;96.18;;;;;;;7.11;72.15;99005.88;10399386;28;20081;-53
2022/12/31 17:27:08;;;;;;;147.15;98.75;;;;;;;7.03;72.58;99015.09;10401449;28;20080;-53
2022/12/31 17:32:36;;;;;;;161.75;106.95;;;;;;;6.91;73.57;99025.84;10393345;28;20075;-52
2022/12/31 17:37:35;;;;;;;216.32;140.10;;;;;;;6.66;74.06;99012.97;10397388;28;20099;-52
2022/12/31 17:42:38;;;;;;;275.38;168.80;;;;;;;6.68;74.82;99030.25;10416717;28;20127;-54
2022/12/31 17:47:40;;;;;;;256.48;162.10;;;;;;;6.57;75.24;99019.53;10398906;28;20095;-51
2022/12/31 17:52:39;;;;;;;274.75;170.45;;;;;;;6.47;75.11;99011.41;10403284;28;20079;-51
2022/12/31 17:57:51;;;;;;;310.40;197.25;;;;;;;6.38;75.46;99022.28;10393387;28;20039;-52
2022/12/31 18:02:50;;;;;;;346.08;223.50;;;;;;;6.28;76.67;99025.34;10393638;28;20479;-53
2022/12/31 18:07:49;;;;;;;377.77;238.85;;;;;;;6.14;77.60;99033.47;10412570;28;20064;-52
2022/12/31 18:12:48;;;;;;;302.00;196.85;;;;;;;6.09;77.59;99028.94;10409833;28;20067;-53
2022/12/31 18:17:48;;;;;;;290.90;188.50;;;;;;;5.94;77.93;99012.09;10397660;28;20791;-54
2022/12/31 18:22:47;;;;;;;296.17;185.73;;;;;;;5.87;78.73;99028.16;10402895;28;20819;-51
2022/12/31 18:27:47;;;;;;;289.40;178.52;;;;;;;5.75;78.72;99025.09;10415161;28;20067;-53
2022/12/31 18:32:46;;;;;;;306.25;182.18;;;;;;;5.63;79.49;99027.22;10392609;28;20064;-52
2022/12/31 18:37:45;;;;;;;280.58;171.48;;;;;;;5.60;79.87;99034.78;10393685;28;20450;-54
2022/12/31 18:42:44;;;;;;;;;;;;;;;5.58;79.69;99044.16;10404867;28;20153;-54
2022/12/31 18:47:43;;;;;;;330.02;188.18;;;;;;;5.54;80.19;99049.19;10393001;28;20094;-54
2022/12/31 18:52:42;;;;;;;308.27;179.20;;;;;;;5.41;80.39;99052.09;10401145;28;20065;-53
2022/12/31 18:57:41;;;;;;;288.88;170.70;;;;;;;5.43;81.00;99054.72;10405681;28;20041;-54
2022/12/31 19:02:40;;;;;;;227.48;139.05;;;;;;;5.37;81.08;99054.47;10397186;28;20028;-54
2022/12/31 19:07:39;;;;;;;257.58;157.88;;;;;;;5.22;80.97;99047.00;10396996;28;20033;-53
2022/12/31 19:12:38;;;;;;;272.08;170.50;;;;;;;5.23;81.44;99059.09;10400553;28;20411;-52
2022/12/31 19:17:37;;;;;;;371.48;226.30;;;;;;;5.15;81.42;99057.88;10407886;28;20044;-54
2022/12/31 19:22:35;;;;;;;369.45;233.50;;;;;;;5.09;81.78;99050.78;10399282;28;20111;-53
2022/12/31 19:27:34;;;;;;;391.88;245.00;;;;;;;5.03;81.85;99042.81;10402536;28;20119;-54
2022/12/31 19:32:33;;;;;;;399.27;242.77;;;;;;;4.95;82.25;99047.66;10408479;28;20121;-54
2022/12/31 19:37:32;;;;;;;387.90;245.10;;;;;;;4.86;82.60;99045.53;10395001;28;20029;-54
2022/12/31 19:42:31;;;;;;;376.05;232.23;;;;;;;4.78;82.82;99049.44;10394451;28;20131;-52
2022/12/31 19:47:30;;;;;;;360.48;230.60;;;;;;;4.69;82.79;99052.53;10394916;28;20035;-53
2022/12/31 19:52:29;;;;;;;376.95;242.98;;;;;;;4.60;83.26;99061.53;10391644;28;20461;-54
2022/12/31 19:57:28;;;;;;;363.23;229.85;;;;;;;4.55;83.45;99068.16;10384859;28;20122;-54
2022/12/31 20:02:27;;;;;;;362.33;224.73;;;;;;;4.49;83.49;99068.75;10391472;28;20090;-54
2022/12/31 20:07:26;;;;;;;346.30;223.48;;;;;;;4.34;83.77;99061.25;10395547;28;20725;-54
2022/12/31 20:12:26;;;;;;;308.55;192.65;;;;;;;4.31;83.98;99080.78;10389765;28;20036;-52
2022/12/31 20:17:25;;;;;;;235.82;144.00;;;;;;;4.19;84.50;99076.84;10403020;28;20123;-50
2022/12/31 20:22:24;;;;;;;198.82;124.18;;;;;;;4.13;84.18;99071.44;10395940;28;20064;-54
2022/12/31 20:27:24;;;;;;;222.23;138.68;;;;;;;4.12;85.06;99072.25;10390576;28;20139;-53
2022/12/31 20:32:23;;;;;;;293.95;181.75;;;;;;;4.12;85.06;99076.50;10396340;28;20037;-54
2022/12/31 20:37:22;;;;;;;395.08;252.50;;;;;;;4.04;85.38;99078.75;10394862;28;20114;-52
2022/12/31 20:42:21;;;;;;;397.33;248.32;;;;;;;4.03;85.64;99077.88;10396034;28;20027;-54
2022/12/31 20:47:20;;;;;;;385.27;244.57;;;;;;;4.03;85.65;99076.97;10401666;28;20035;-54
2022/12/31 20:52:19;;;;;;;353.27;224.02;;;;;;;4.01;85.41;99074.34;10406028;28;20079;-52
2022/12/31 20:57:18;;;;;;;309.95;195.60;;;;;;;3.97;85.59;99079.25;10403913;28;20035;-53
2022/12/31 21:02:17;;;;;;;308.63;195.68;;;;;;;3.89;85.84;99084.03;10398273;28;20147;-53
2022/12/31 21:07:16;;;;;;;416.70;266.58;;;;;;;3.77;86.16;99083.44;10397958;28;20033;-54
2022/12/31 21:17:33;;;;;;;276.08;171.38;;;;;;;3.65;86.64;99073.47;10404878;28;20076;-53
2022/12/31 21:22:32;;;;;;;309.60;193.88;;;;;;;3.64;86.62;99074.31;10406426;28;20032;-54
2022/12/31 21:27:31;;;;;;;450.13;271.90;;;;;;;3.58;86.75;99076.56;10393564;28;20057;-53
2022/12/31 21:32:30;;;;;;;375.67;235.05;;;;;;;3.51;87.64;99079.66;10402799;28;20024;-53
2022/12/31 21:37:29;;;;;;;310.58;198.15;;;;;;;3.47;87.38;99080.31;10395054;28;20062;-56
2022/12/31 21:42:28;;;;;;;279.25;163.32;;;;;;;3.41;87.29;99089.47;10392584;28;20107;-55
2022/12/31 21:52:44;;;;;;;213.32;127.00;;;;;;;3.29;87.87;99086.31;10400607;28;20524;-52
2022/12/31 21:57:45;;;;;;;223.25;136.35;;;;;;;3.23;87.84;99088.56;10406327;28;20546;-51
2022/12/31 22:08:02;;;;;;;177.23;108.53;;;;;;;2.98;88.42;99071.06;10411503;28;20063;-52
2022/12/31 22:13:01;;;;;;;266.90;154.70;;;;;;;3.06;88.74;99084.28;10388930;28;20040;-53
2022/12/31 22:18:00;;;;;;;394.10;241.95;;;;;;;3.01;88.29;99087.50;10405597;28;20474;-52
2022/12/31 22:22:59;;;;;;;445.92;278.63;;;;;;;2.92;88.70;99102.41;10402675;28;20033;-53
2022/12/31 22:27:57;;;;;;;413.17;251.05;;;;;;;2.74;89.30;99116.84;10393695;28;20040;-50
2022/12/31 22:32:57;;;;;;;452.08;279.15;;;;;;;2.72;89.37;99114.22;10394399;28;20055;-52
2022/12/31 22:37:56;;;;;;;452.95;283.30;;;;;;;2.75;89.42;99116.06;10233755;28;20468;-51
2022/12/31 22:42:54;;;;;;;527.88;338.50;;;;;;;2.75;89.02;99114.38;10431226;28;20471;-53
2022/12/31 22:47:53;;;;;;;551.40;354.50;;;;;;;2.75;89.29;99093.00;10387867;28;20040;-52
2022/12/31 22:52:52;;;;;;;442.27;268.33;;;;;;;2.67;89.38;99079.78;10439467;28;20551;-54
2022/12/31 22:57:51;;;;;;;439.20;267.08;;;;;;;2.60;89.58;99093.06;10459316;28;20500;-54
2022/12/31 23:02:50;;;;;;;461.02;278.73;;;;;;;2.61;89.60;99099.97;10429983;28;20039;-51
2022/12/31 23:07:49;;;;;;;474.40;279.50;;;;;;;2.58;90.00;99108.38;10439841;28;20115;-53
2022/12/31 23:12:48;;;;;;;476.25;285.27;;;;;;;2.57;89.80;99098.03;10430372;28;20040;-55
2022/12/31 23:23:13;;;;;;;460.75;273.20;;;;;;;2.52;89.57;99100.38;10432274;28;20440;-51
2022/12/31 23:28:18;;;;;;;423.38;242.57;;;;;;;2.48;89.76;99093.31;10421500;28;20132;-53
2022/12/31 23:33:22;;;;;;;396.65;231.82;;;;;;;2.44;90.25;99093.97;10444425;28;20707;-53
2022/12/31 23:38:21;;;;;;;363.70;211.73;;;;;;;2.42;90.42;99086.97;10416515;28;20063;-54
2022/12/31 23:43:21;;;;;;;342.67;198.82;;;;;;;2.41;90.33;99095.47;10446753;28;20036;-52